This is the latest recevied weather packets stored in our database for station/object VE7KNL-13. If no packets are shown the sender has not sent any weather packets the latest 10 day(s).
| Time | Temp. | Humidity | Pressure | Rain* | Wind** | Luminosity | Snow |
|---|---|---|---|---|---|---|---|
| 1777612217 | 9.44° C | 69% | 1015.6 hPa | 0 mm | - | - | - |
| 1777611617 | 10° C | 68% | 1015.7 hPa | 0 mm | - | - | - |
| 1777604417 | 15° C | 53% | 1013.6 hPa | 0 mm | - | - | - |
| 1777602617 | 16.67° C | 46% | 1013.3 hPa | 0 mm | - | - | - |
| 1777599037 | 21.67° C | 35% | 1013.5 hPa | 0 mm | - | - | - |
| 1777597217 | 22.22° C | 27% | 1013.6 hPa | 0 mm | - | - | - |
| 1777595417 | 22.22° C | 26% | 1014 hPa | 0 mm | - | - | - |
| 1777594816 | 22.78° C | 26% | 1014.2 hPa | 0 mm | - | - | - |
| 1777590617 | 23.89° C | 26% | 1015.3 hPa | 0 mm | - | - | - |
| 1777588816 | 23.33° C | 26% | 1015.6 hPa | 0 mm | - | - | - |
| 1777585216 | 22.22° C | 28% | 1016.3 hPa | 0 mm | - | - | - |
| 1777581616 | 22.22° C | 29% | 1017 hPa | 0 mm | - | - | - |
| 1777574418 | 18.89° C | 41% | 1018.6 hPa | 0 mm | - | - | - |
| 1777568418 | 16.11° C | 46% | 1019.6 hPa | 0 mm | - | - | - |
| 1777558818 | 4.44° C | 83% | 1021.3 hPa | 0 mm | - | - | - |
| 1777555817 | 1.11° C | 91% | 1021.2 hPa | 0 mm | - | - | - |
| 1777551037 | 1.11° C | 89% | 1020.9 hPa | 0 mm | - | - | - |
| 1777546817 | 2.22° C | 87% | 1021 hPa | 0 mm | - | - | - |
| 1777546217 | 2.22° C | 87% | 1020.9 hPa | 0 mm | - | - | - |
| 1777539017 | 3.89° C | 82% | 1020.9 hPa | 0 mm | - | - | - |
| 1777536017 | 5° C | 80% | 1020.8 hPa | 0 mm | - | - | - |
| 1777532416 | 5.56° C | 77% | 1020.6 hPa | 0 mm | - | - | - |
| 1777531818 | 6.11° C | 76% | 1020.4 hPa | 0 mm | - | - | - |
| 1777530618 | 6.11° C | 75% | 1020.3 hPa | 0 mm | - | - | - |
| 1777530018 | 6.67° C | 75% | 1020.1 hPa | 0 mm | - | - | - |
* Rain latest hour (hover to see other rain measurements)
** Current wind speed in m/s (hover to see current wind gust speed)